sensor_id;sensor_type;location;lat;lon;timestamp;pressure;altitude;pressure_sealevel;temperature;humidity
11712;BME280;5912;51.034;6.984;2023-07-24T00:00:44;56188.06;;;-142.13;74.42
11712;BME280;5912;51.034;6.984;2023-07-24T00:03:09;56194.06;;;-142.13;74.29
11712;BME280;5912;51.034;6.984;2023-07-24T00:05:34;56222.13;;;-142.13;74.49
11712;BME280;5912;51.034;6.984;2023-07-24T00:07:59;56188.06;;;-142.13;74.87
11712;BME280;5912;51.034;6.984;2023-07-24T00:10:25;56186.06;;;-142.13;75.06
11712;BME280;5912;51.034;6.984;2023-07-24T00:12:50;56190.06;;;-142.13;75.13
11712;BME280;5912;51.034;6.984;2023-07-24T00:15:15;56216.09;;;-142.13;75.27
11712;BME280;5912;51.034;6.984;2023-07-24T00:17:41;56226.13;;;-142.13;75.75
11712;BME280;5912;51.034;6.984;2023-07-24T00:20:06;56200.09;;;-142.13;76.08
11712;BME280;5912;51.034;6.984;2023-07-24T00:22:32;56196.06;;;-142.13;76.09
11712;BME280;5912;51.034;6.984;2023-07-24T00:24:57;56202.09;;;-142.13;76.50
11712;BME280;5912;51.034;6.984;2023-07-24T00:27:22;56216.09;;;-142.13;76.51
11712;BME280;5912;51.034;6.984;2023-07-24T00:29:48;56226.13;;;-142.13;76.61
11712;BME280;5912;51.034;6.984;2023-07-24T00:32:13;56206.09;;;-142.13;76.63
11712;BME280;5912;51.034;6.984;2023-07-24T00:34:38;56208.09;;;-142.13;76.90
11712;BME280;5912;51.034;6.984;2023-07-24T00:37:04;56256.16;;;-142.13;77.02
11712;BME280;5912;51.034;6.984;2023-07-24T00:39:29;56226.13;;;-142.13;77.00
11712;BME280;5912;51.034;6.984;2023-07-24T00:41:55;56228.13;;;-142.13;77.16
11712;BME280;5912;51.034;6.984;2023-07-24T00:44:20;56218.09;;;-142.13;77.19
11712;BME280;5912;51.034;6.984;2023-07-24T00:46:46;56230.13;;;-142.13;77.11
11712;BME280;5912;51.034;6.984;2023-07-24T00:49:11;56234.13;;;-142.13;77.61
11712;BME280;5912;51.034;6.984;2023-07-24T00:51:37;56234.13;;;-142.13;77.31
11712;BME280;5912;51.034;6.984;2023-07-24T00:54:05;56230.13;;;-142.13;77.72
11712;BME280;5912;51.034;6.984;2023-07-24T00:56:32;56226.13;;;-142.13;78.01
11712;BME280;5912;51.034;6.984;2023-07-24T00:58:58;56264.19;;;-142.13;78.02
11712;BME280;5912;51.034;6.984;2023-07-24T01:01:25;56208.09;;;-142.13;78.05
11712;BME280;5912;51.034;6.984;2023-07-24T01:03:51;56232.13;;;-142.13;78.30
11712;BME280;5912;51.034;6.984;2023-07-24T01:06:17;56264.19;;;-142.13;78.36
11712;BME280;5912;51.034;6.984;2023-07-24T01:08:42;56256.16;;;-142.13;78.21
11712;BME280;5912;51.034;6.984;2023-07-24T01:11:27;56248.16;;;-142.13;78.56
11712;BME280;5912;51.034;6.984;2023-07-24T01:13:58;56236.13;;;-142.13;78.23
11712;BME280;5912;51.034;6.984;2023-07-24T01:16:32;56196.06;;;-142.13;78.62
11712;BME280;5912;51.034;6.984;2023-07-24T01:18:58;56236.13;;;-142.13;78.67
11712;BME280;5912;51.034;6.984;2023-07-24T01:21:33;56236.13;;;-142.13;78.53
11712;BME280;5912;51.034;6.984;2023-07-24T01:24:18;56222.13;;;-142.13;78.42
11712;BME280;5912;51.034;6.984;2023-07-24T01:26:45;56258.16;;;-142.13;78.48
11712;BME280;5912;51.034;6.984;2023-07-24T01:29:11;56238.13;;;-142.13;78.55
11712;BME280;5912;51.034;6.984;2023-07-24T01:31:36;56262.19;;;-142.13;78.61
11712;BME280;5912;51.034;6.984;2023-07-24T01:34:02;56260.19;;;-142.13;78.61
11712;BME280;5912;51.034;6.984;2023-07-24T01:36:27;56246.16;;;-142.13;78.92
11712;BME280;5912;51.034;6.984;2023-07-24T01:38:53;56236.13;;;-142.13;78.70
11712;BME280;5912;51.034;6.984;2023-07-24T01:41:19;56312.25;;;-142.13;78.67
11712;BME280;5912;51.034;6.984;2023-07-24T01:43:44;56238.13;;;-142.13;79.04
11712;BME280;5912;51.034;6.984;2023-07-24T01:46:09;56262.19;;;-142.13;78.97
11712;BME280;5912;51.034;6.984;2023-07-24T01:48:35;56248.16;;;-142.13;79.15
11712;BME280;5912;51.034;6.984;2023-07-24T01:51:00;56262.19;;;-142.13;79.04
11712;BME280;5912;51.034;6.984;2023-07-24T01:53:25;56232.13;;;-142.13;78.76
11712;BME280;5912;51.034;6.984;2023-07-24T01:55:51;56236.13;;;-142.13;79.18
11712;BME280;5912;51.034;6.984;2023-07-24T01:58:16;56228.13;;;-142.13;78.99
11712;BME280;5912;51.034;6.984;2023-07-24T02:00:41;56226.13;;;-142.13;78.74
11712;BME280;5912;51.034;6.984;2023-07-24T02:03:07;56264.19;;;-142.13;79.11
11712;BME280;5912;51.034;6.984;2023-07-24T02:05:32;56272.19;;;-142.13;78.85
11712;BME280;5912;51.034;6.984;2023-07-24T02:07:57;56240.16;;;-142.13;78.71
11712;BME280;5912;51.034;6.984;2023-07-24T02:10:23;56244.16;;;-142.13;78.61
11712;BME280;5912;51.034;6.984;2023-07-24T02:12:48;56236.13;;;-142.13;78.60
11712;BME280;5912;51.034;6.984;2023-07-24T02:15:13;56232.13;;;-142.13;78.67
11712;BME280;5912;51.034;6.984;2023-07-24T02:17:39;56252.16;;;-142.13;78.70
11712;BME280;5912;51.034;6.984;2023-07-24T02:20:04;56264.19;;;-142.13;78.44
11712;BME280;5912;51.034;6.984;2023-07-24T02:22:30;56242.16;;;-142.13;78.76
11712;BME280;5912;51.034;6.984;2023-07-24T02:24:55;56248.16;;;-142.13;78.21
11712;BME280;5912;51.034;6.984;2023-07-24T02:27:31;56248.16;;;-142.13;78.52
11712;BME280;5912;51.034;6.984;2023-07-24T02:29:59;56254.16;;;-142.13;78.28
11712;BME280;5912;51.034;6.984;2023-07-24T02:32:25;56250.16;;;-142.13;77.83
11712;BME280;5912;51.034;6.984;2023-07-24T02:34:51;56232.13;;;-142.13;77.85
11712;BME280;5912;51.034;6.984;2023-07-24T02:37:17;56256.16;;;-142.13;78.18
11712;BME280;5912;51.034;6.984;2023-07-24T02:39:43;56266.19;;;-142.13;78.41
11712;BME280;5912;51.034;6.984;2023-07-24T02:42:08;56262.19;;;-142.13;78.40
11712;BME280;5912;51.034;6.984;2023-07-24T02:44:34;56228.13;;;-142.13;78.30
11712;BME280;5912;51.034;6.984;2023-07-24T02:47:00;56244.16;;;-142.13;78.60
11712;BME280;5912;51.034;6.984;2023-07-24T02:49:25;56250.16;;;-142.13;78.56
11712;BME280;5912;51.034;6.984;2023-07-24T02:51:50;56232.13;;;-142.13;78.60
11712;BME280;5912;51.034;6.984;2023-07-24T02:54:15;56234.13;;;-142.13;78.76
11712;BME280;5912;51.034;6.984;2023-07-24T02:56:41;56228.13;;;-142.13;78.70
11712;BME280;5912;51.034;6.984;2023-07-24T02:59:06;56252.16;;;-142.13;78.58
11712;BME280;5912;51.034;6.984;2023-07-24T03:01:31;56232.13;;;-142.13;78.79
11712;BME280;5912;51.034;6.984;2023-07-24T03:03:57;56212.09;;;-142.13;78.86
11712;BME280;5912;51.034;6.984;2023-07-24T03:06:22;56248.16;;;-142.13;78.99
11712;BME280;5912;51.034;6.984;2023-07-24T03:08:48;56266.19;;;-142.13;78.71
11712;BME280;5912;51.034;6.984;2023-07-24T03:11:13;56240.16;;;-142.13;79.07
11712;BME280;5912;51.034;6.984;2023-07-24T03:13:38;56238.13;;;-142.13;78.99
11712;BME280;5912;51.034;6.984;2023-07-24T03:16:06;56242.16;;;-142.13;79.02
11712;BME280;5912;51.034;6.984;2023-07-24T03:18:31;56256.16;;;-142.13;78.84
11712;BME280;5912;51.034;6.984;2023-07-24T03:20:57;56248.16;;;-142.13;78.83
11712;BME280;5912;51.034;6.984;2023-07-24T03:23:23;56276.19;;;-142.13;78.80
11712;BME280;5912;51.034;6.984;2023-07-24T03:25:48;56262.19;;;-142.13;78.86
11712;BME280;5912;51.034;6.984;2023-07-24T03:28:14;56256.16;;;-142.13;78.77
11712;BME280;5912;51.034;6.984;2023-07-24T03:30:39;56244.16;;;-142.13;78.98
11712;BME280;5912;51.034;6.984;2023-07-24T03:33:04;56244.16;;;-142.13;78.90
11712;BME280;5912;51.034;6.984;2023-07-24T03:35:31;56240.16;;;-142.13;79.27
11712;BME280;5912;51.034;6.984;2023-07-24T03:37:56;56248.16;;;-142.13;78.87
11712;BME280;5912;51.034;6.984;2023-07-24T03:40:22;56252.16;;;-142.13;79.24
11712;BME280;5912;51.034;6.984;2023-07-24T03:42:47;56260.19;;;-142.13;79.47
11712;BME280;5912;51.034;6.984;2023-07-24T03:45:12;56252.16;;;-142.13;79.29
11712;BME280;5912;51.034;6.984;2023-07-24T03:47:38;56264.19;;;-142.13;79.23
11712;BME280;5912;51.034;6.984;2023-07-24T03:50:03;56264.19;;;-142.13;79.36
11712;BME280;5912;51.034;6.984;2023-07-24T03:52:28;56248.16;;;-142.13;79.43
11712;BME280;5912;51.034;6.984;2023-07-24T03:54:54;56256.16;;;-142.13;79.36
11712;BME280;5912;51.034;6.984;2023-07-24T03:57:19;56260.19;;;-142.13;79.35
11712;BME280;5912;51.034;6.984;2023-07-24T03:59:44;56272.19;;;-142.13;79.85
11712;BME280;5912;51.034;6.984;2023-07-24T04:02:10;56264.19;;;-142.13;79.76
11712;BME280;5912;51.034;6.984;2023-07-24T04:04:35;56240.16;;;-142.13;79.91
11712;BME280;5912;51.034;6.984;2023-07-24T04:07:01;56244.16;;;-142.13;79.35
11712;BME280;5912;51.034;6.984;2023-07-24T04:09:26;56238.13;;;-142.13;79.37
11712;BME280;5912;51.034;6.984;2023-07-24T04:11:51;56260.19;;;-142.13;79.34
11712;BME280;5912;51.034;6.984;2023-07-24T04:14:17;56260.19;;;-142.13;79.39
11712;BME280;5912;51.034;6.984;2023-07-24T04:16:42;56240.16;;;-142.13;78.79
11712;BME280;5912;51.034;6.984;2023-07-24T04:19:07;56230.13;;;-142.13;79.07
11712;BME280;5912;51.034;6.984;2023-07-24T04:21:33;56248.16;;;-142.13;78.77
11712;BME280;5912;51.034;6.984;2023-07-24T04:23:59;56202.09;;;-142.13;78.76
11712;BME280;5912;51.034;6.984;2023-07-24T04:26:24;56232.13;;;-142.13;78.28
11712;BME280;5912;51.034;6.984;2023-07-24T04:28:49;56252.16;;;-142.13;78.59
11712;BME280;5912;51.034;6.984;2023-07-24T04:31:15;56220.13;;;-142.13;78.14
11712;BME280;5912;51.034;6.984;2023-07-24T04:33:40;56252.16;;;-142.13;77.27
11712;BME280;5912;51.034;6.984;2023-07-24T04:36:05;56240.16;;;-142.13;76.34
11712;BME280;5912;51.034;6.984;2023-07-24T04:38:30;56244.16;;;-142.13;75.74
11712;BME280;5912;51.034;6.984;2023-07-24T04:40:56;56256.16;;;-142.13;75.48
11712;BME280;5912;51.034;6.984;2023-07-24T04:43:21;56216.09;;;-142.13;74.51
11712;BME280;5912;51.034;6.984;2023-07-24T04:45:46;56244.16;;;-142.13;73.41
11712;BME280;5912;51.034;6.984;2023-07-24T04:48:12;56232.13;;;-142.13;73.15
11712;BME280;5912;51.034;6.984;2023-07-24T04:50:37;56212.09;;;-142.13;72.75
11712;BME280;5912;51.034;6.984;2023-07-24T04:53:02;56236.13;;;-142.13;72.31
11712;BME280;5912;51.034;6.984;2023-07-24T04:55:28;56210.09;;;-142.13;72.31
11712;BME280;5912;51.034;6.984;2023-07-24T04:57:53;56224.13;;;-142.13;72.35
11712;BME280;5912;51.034;6.984;2023-07-24T05:00:18;56220.13;;;-142.13;71.22
11712;BME280;5912;51.034;6.984;2023-07-24T05:02:44;56218.09;;;-142.13;70.86
11712;BME280;5912;51.034;6.984;2023-07-24T05:05:09;56216.09;;;-142.13;71.07
11712;BME280;5912;51.034;6.984;2023-07-24T05:07:34;56210.09;;;-142.13;70.90
11712;BME280;5912;51.034;6.984;2023-07-24T05:10:00;56192.06;;;-142.13;70.51
11712;BME280;5912;51.034;6.984;2023-07-24T05:12:25;56204.09;;;-142.13;70.63
11712;BME280;5912;51.034;6.984;2023-07-24T05:14:51;56188.06;;;-142.13;70.58
11712;BME280;5912;51.034;6.984;2023-07-24T05:17:16;56244.16;;;-142.13;70.49
11712;BME280;5912;51.034;6.984;2023-07-24T05:19:41;56212.09;;;-142.13;70.32
11712;BME280;5912;51.034;6.984;2023-07-24T05:22:07;56192.06;;;-142.13;69.57
11712;BME280;5912;51.034;6.984;2023-07-24T05:24:33;56200.09;;;-142.13;68.87
11712;BME280;5912;51.034;6.984;2023-07-24T05:26:58;56176.03;;;-142.13;68.82
11712;BME280;5912;51.034;6.984;2023-07-24T05:29:23;56192.06;;;-142.13;69.01
11712;BME280;5912;51.034;6.984;2023-07-24T05:31:49;56186.06;;;-142.13;68.53
11712;BME280;5912;51.034;6.984;2023-07-24T05:34:14;56182.06;;;-142.13;68.50
11712;BME280;5912;51.034;6.984;2023-07-24T05:36:40;56176.03;;;-142.13;67.91
11712;BME280;5912;51.034;6.984;2023-07-24T05:39:06;56164.03;;;-142.13;66.72
11712;BME280;5912;51.034;6.984;2023-07-24T05:41:31;56182.06;;;-142.13;66.51
11712;BME280;5912;51.034;6.984;2023-07-24T05:43:57;56194.06;;;-142.13;65.96
11712;BME280;5912;51.034;6.984;2023-07-24T05:46:22;56142.00;;;-142.13;63.75
11712;BME280;5912;51.034;6.984;2023-07-24T05:48:47;56158.00;;;-142.13;63.84
11712;BME280;5912;51.034;6.984;2023-07-24T05:51:13;56146.00;;;-142.13;62.38
11712;BME280;5912;51.034;6.984;2023-07-24T05:53:38;56172.03;;;-142.13;62.66
11712;BME280;5912;51.034;6.984;2023-07-24T05:56:03;56125.97;;;-142.13;62.53
11712;BME280;5912;51.034;6.984;2023-07-24T05:58:29;56099.94;;;-142.13;61.67
11712;BME280;5912;51.034;6.984;2023-07-24T06:00:54;56119.97;;;-142.13;61.05
11712;BME280;5912;51.034;6.984;2023-07-24T06:03:23;56103.94;;;-142.13;60.91
11712;BME280;5912;51.034;6.984;2023-07-24T06:05:55;56127.97;;;-142.13;60.53
11712;BME280;5912;51.034;6.984;2023-07-24T06:08:22;56097.94;;;-142.13;60.80
11712;BME280;5912;51.034;6.984;2023-07-24T06:10:49;56105.94;;;-142.13;60.48
11712;BME280;5912;51.034;6.984;2023-07-24T06:13:18;56091.91;;;-142.13;59.20
11712;BME280;5912;51.034;6.984;2023-07-24T06:15:43;56097.94;;;-142.13;58.79
11712;BME280;5912;51.034;6.984;2023-07-24T06:18:09;56051.84;;;-142.13;57.87
11712;BME280;5912;51.034;6.984;2023-07-24T06:20:35;56077.91;;;-142.13;57.33
11712;BME280;5912;51.034;6.984;2023-07-24T06:23:01;56111.94;;;-142.13;56.96
11712;BME280;5912;51.034;6.984;2023-07-24T06:25:29;56095.91;;;-142.13;57.14
11712;BME280;5912;51.034;6.984;2023-07-24T06:27:54;56081.91;;;-142.13;56.02
11712;BME280;5912;51.034;6.984;2023-07-24T06:30:19;56079.91;;;-142.13;55.34
11712;BME280;5912;51.034;6.984;2023-07-24T06:32:44;56049.84;;;-142.13;55.01
11712;BME280;5912;51.034;6.984;2023-07-24T06:35:10;56043.84;;;-142.13;53.66
11712;BME280;5912;51.034;6.984;2023-07-24T06:37:35;56051.84;;;-142.13;54.16
11712;BME280;5912;51.034;6.984;2023-07-24T06:40:00;56063.88;;;-142.13;54.16
11712;BME280;5912;51.034;6.984;2023-07-24T06:42:26;56077.91;;;-142.13;56.13
11712;BME280;5912;51.034;6.984;2023-07-24T06:44:51;56061.88;;;-142.13;56.40
11712;BME280;5912;51.034;6.984;2023-07-24T06:47:16;56095.91;;;-142.13;55.09
11712;BME280;5912;51.034;6.984;2023-07-24T06:49:42;56081.91;;;-142.13;56.21
11712;BME280;5912;51.034;6.984;2023-07-24T06:52:07;56079.91;;;-142.13;56.19
11712;BME280;5912;51.034;6.984;2023-07-24T06:54:32;56111.94;;;-142.13;56.10
11712;BME280;5912;51.034;6.984;2023-07-24T06:56:58;56081.91;;;-142.13;56.68
11712;BME280;5912;51.034;6.984;2023-07-24T06:59:23;56091.91;;;-142.13;55.87
11712;BME280;5912;51.034;6.984;2023-07-24T07:01:48;56091.91;;;-142.13;55.07
11712;BME280;5912;51.034;6.984;2023-07-24T07:04:14;56085.91;;;-142.13;55.11
11712;BME280;5912;51.034;6.984;2023-07-24T07:06:39;56083.91;;;-142.13;55.18
11712;BME280;5912;51.034;6.984;2023-07-24T07:09:04;56053.84;;;-142.13;55.04
11712;BME280;5912;51.034;6.984;2023-07-24T07:11:30;56063.88;;;-142.13;52.80
11712;BME280;5912;51.034;6.984;2023-07-24T07:13:55;56055.84;;;-142.13;51.39
11712;BME280;5912;51.034;6.984;2023-07-24T07:16:21;56019.81;;;-142.13;49.82
11712;BME280;5912;51.034;6.984;2023-07-24T07:18:46;56027.81;;;-142.13;48.16
11712;BME280;5912;51.034;6.984;2023-07-24T07:21:11;56009.78;;;-142.13;47.57
11712;BME280;5912;51.034;6.984;2023-07-24T07:23:37;56029.81;;;-142.13;46.63
11712;BME280;5912;51.034;6.984;2023-07-24T07:26:02;55991.75;;;-142.13;47.13
11712;BME280;5912;51.034;6.984;2023-07-24T07:28:27;56039.84;;;-142.13;47.38
11712;BME280;5912;51.034;6.984;2023-07-24T07:30:53;56043.84;;;-142.13;47.52
11712;BME280;5912;51.034;6.984;2023-07-24T07:33:19;56051.84;;;-142.13;48.43
11712;BME280;5912;51.034;6.984;2023-07-24T07:35:47;56037.84;;;-142.13;48.15
11712;BME280;5912;51.034;6.984;2023-07-24T07:38:12;56029.81;;;-142.13;47.33
11712;BME280;5912;51.034;6.984;2023-07-24T07:40:37;56021.81;;;-142.13;46.09
11712;BME280;5912;51.034;6.984;2023-07-24T07:43:04;56033.81;;;-142.13;46.49
11712;BME280;5912;51.034;6.984;2023-07-24T07:45:29;56023.81;;;-142.13;45.77
11712;BME280;5912;51.034;6.984;2023-07-24T07:48:10;56013.78;;;-142.13;44.90
11712;BME280;5912;51.034;6.984;2023-07-24T07:50:35;55979.75;;;-142.13;44.74
11712;BME280;5912;51.034;6.984;2023-07-24T07:53:01;55979.75;;;-142.13;42.68
11712;BME280;5912;51.034;6.984;2023-07-24T07:55:26;55947.69;;;-142.13;41.54
11712;BME280;5912;51.034;6.984;2023-07-24T07:57:51;55947.69;;;-142.13;40.60
11712;BME280;5912;51.034;6.984;2023-07-24T08:00:20;55911.66;;;-142.13;40.52
11712;BME280;5912;51.034;6.984;2023-07-24T08:02:45;55903.63;;;-142.13;39.46
11712;BME280;5912;51.034;6.984;2023-07-24T08:05:11;55913.66;;;-142.13;39.80
11712;BME280;5912;51.034;6.984;2023-07-24T08:07:36;55941.69;;;-142.13;39.97
11712;BME280;5912;51.034;6.984;2023-07-24T08:10:03;55961.72;;;-142.13;40.24
11712;BME280;5912;51.034;6.984;2023-07-24T08:12:28;55967.72;;;-142.13;40.43
11712;BME280;5912;51.034;6.984;2023-07-24T08:14:54;55955.72;;;-142.13;41.75
11712;BME280;5912;51.034;6.984;2023-07-24T08:17:19;55967.72;;;-142.13;41.81
11712;BME280;5912;51.034;6.984;2023-07-24T08:19:45;55955.72;;;-142.13;41.29
11712;BME280;5912;51.034;6.984;2023-07-24T08:22:10;55951.69;;;-142.13;41.53
11712;BME280;5912;51.034;6.984;2023-07-24T08:24:36;55973.75;;;-142.13;41.95
11712;BME280;5912;51.034;6.984;2023-07-24T08:27:01;55955.72;;;-142.13;41.51
11712;BME280;5912;51.034;6.984;2023-07-24T08:29:27;55991.75;;;-142.13;41.61
11712;BME280;5912;51.034;6.984;2023-07-24T08:31:52;55981.75;;;-142.13;42.67
11712;BME280;5912;51.034;6.984;2023-07-24T08:34:17;55999.78;;;-142.13;42.88
11712;BME280;5912;51.034;6.984;2023-07-24T08:36:43;55989.75;;;-142.13;43.77
11712;BME280;5912;51.034;6.984;2023-07-24T08:39:08;55997.78;;;-142.13;44.25
11712;BME280;5912;51.034;6.984;2023-07-24T08:41:33;56017.81;;;-142.13;44.36
11712;BME280;5912;51.034;6.984;2023-07-24T08:44:01;56005.78;;;-142.13;44.82
11712;BME280;5912;51.034;6.984;2023-07-24T08:46:27;55991.75;;;-142.13;45.52
11712;BME280;5912;51.034;6.984;2023-07-24T08:48:54;56023.81;;;-142.13;45.10
11712;BME280;5912;51.034;6.984;2023-07-24T08:51:20;56041.84;;;-142.13;45.93
11712;BME280;5912;51.034;6.984;2023-07-24T08:53:47;56029.81;;;-142.13;46.17
11712;BME280;5912;51.034;6.984;2023-07-24T08:56:13;56013.78;;;-142.13;45.68
11712;BME280;5912;51.034;6.984;2023-07-24T08:58:39;56019.81;;;-142.13;45.31
11712;BME280;5912;51.034;6.984;2023-07-24T09:01:05;56003.78;;;-142.13;44.23
11712;BME280;5912;51.034;6.984;2023-07-24T09:03:35;56009.78;;;-142.13;43.56
11712;BME280;5912;51.034;6.984;2023-07-24T09:06:01;56007.78;;;-142.13;43.27
11712;BME280;5912;51.034;6.984;2023-07-24T09:11:49;56051.84;;;-142.13;44.70
11712;BME280;5912;51.034;6.984;2023-07-24T09:14:25;56035.81;;;-142.13;46.65
11712;BME280;5912;51.034;6.984;2023-07-24T09:17:04;56057.88;;;-142.13;46.71
11712;BME280;5912;51.034;6.984;2023-07-24T09:19:30;56059.88;;;-142.13;46.49
11712;BME280;5912;51.034;6.984;2023-07-24T09:21:55;56063.88;;;-142.13;46.06
11712;BME280;5912;51.034;6.984;2023-07-24T09:24:21;56031.81;;;-142.13;46.29
11712;BME280;5912;51.034;6.984;2023-07-24T09:26:52;56027.81;;;-142.13;45.26
11712;BME280;5912;51.034;6.984;2023-07-24T09:29:18;56017.81;;;-142.13;45.19
11712;BME280;5912;51.034;6.984;2023-07-24T09:31:44;56033.81;;;-142.13;44.87
11712;BME280;5912;51.034;6.984;2023-07-24T09:34:17;56033.81;;;-142.13;44.74
11712;BME280;5912;51.034;6.984;2023-07-24T09:36:43;56011.78;;;-142.13;44.68
11712;BME280;5912;51.034;6.984;2023-07-24T09:39:09;56025.81;;;-142.13;43.87
11712;BME280;5912;51.034;6.984;2023-07-24T09:41:37;55985.75;;;-142.13;43.64
11712;BME280;5912;51.034;6.984;2023-07-24T09:44:03;55989.75;;;-142.13;42.99
11712;BME280;5912;51.034;6.984;2023-07-24T09:46:28;55977.75;;;-142.13;42.17
11712;BME280;5912;51.034;6.984;2023-07-24T09:48:56;55975.75;;;-142.13;41.24
11712;BME280;5912;51.034;6.984;2023-07-24T09:51:22;55951.69;;;-142.13;41.03
11712;BME280;5912;51.034;6.984;2023-07-24T09:56:46;55983.75;;;-142.13;41.49
11712;BME280;5912;51.034;6.984;2023-07-24T09:59:13;55967.72;;;-142.13;41.01
11712;BME280;5912;51.034;6.984;2023-07-24T10:01:39;55959.72;;;-142.13;40.75
11712;BME280;5912;51.034;6.984;2023-07-24T10:04:04;55967.72;;;-142.13;40.52
11712;BME280;5912;51.034;6.984;2023-07-24T10:06:30;55959.72;;;-142.13;40.14
11712;BME280;5912;51.034;6.984;2023-07-24T10:08:57;55943.69;;;-142.13;39.75
11712;BME280;5912;51.034;6.984;2023-07-24T10:11:23;55937.69;;;-142.13;39.82
11712;BME280;5912;51.034;6.984;2023-07-24T10:13:50;55931.66;;;-142.13;39.08
11712;BME280;5912;51.034;6.984;2023-07-24T10:16:15;55955.72;;;-142.13;39.99
11712;BME280;5912;51.034;6.984;2023-07-24T10:18:43;55955.72;;;-142.13;40.34
11712;BME280;5912;51.034;6.984;2023-07-24T10:21:11;55973.75;;;-142.13;40.45
11712;BME280;5912;51.034;6.984;2023-07-24T10:23:40;55961.72;;;-142.13;41.11
11712;BME280;5912;51.034;6.984;2023-07-24T10:26:07;55975.75;;;-142.13;41.37
11712;BME280;5912;51.034;6.984;2023-07-24T10:28:40;55945.69;;;-142.13;41.18
11712;BME280;5912;51.034;6.984;2023-07-24T10:31:19;55907.63;;;-142.13;41.29
11712;BME280;5912;51.034;6.984;2023-07-24T10:33:45;55887.59;;;-142.13;38.56
11712;BME280;5912;51.034;6.984;2023-07-24T10:36:11;55851.56;;;-142.13;37.63
11712;BME280;5912;51.034;6.984;2023-07-24T10:38:43;55851.56;;;-142.13;36.74
11712;BME280;5912;51.034;6.984;2023-07-24T10:41:10;55807.50;;;-142.13;35.20
11712;BME280;5912;51.034;6.984;2023-07-24T10:43:46;55799.47;;;-142.13;34.52
11712;BME280;5912;51.034;6.984;2023-07-24T10:46:43;55817.50;;;-142.13;34.40
11712;BME280;5912;51.034;6.984;2023-07-24T10:49:08;55815.50;;;-142.13;34.40
11712;BME280;5912;51.034;6.984;2023-07-24T10:51:34;55847.56;;;-142.13;35.15
11712;BME280;5912;51.034;6.984;2023-07-24T10:54:03;55851.56;;;-142.13;35.73
11712;BME280;5912;51.034;6.984;2023-07-24T10:56:29;55855.56;;;-142.13;35.48
11712;BME280;5912;51.034;6.984;2023-07-24T10:58:54;55859.56;;;-142.13;35.88
11712;BME280;5912;51.034;6.984;2023-07-24T11:01:20;55847.56;;;-142.13;36.08
11712;BME280;5912;51.034;6.984;2023-07-24T11:03:45;55877.59;;;-142.13;36.22
11712;BME280;5912;51.034;6.984;2023-07-24T11:06:19;55871.59;;;-142.13;36.42
11712;BME280;5912;51.034;6.984;2023-07-24T11:08:55;55911.66;;;-142.13;37.48
11712;BME280;5912;51.034;6.984;2023-07-24T11:11:31;55915.66;;;-142.13;38.28
11712;BME280;5912;51.034;6.984;2023-07-24T11:13:57;55917.66;;;-142.13;39.77
11712;BME280;5912;51.034;6.984;2023-07-24T11:16:22;55951.69;;;-142.13;40.67
11712;BME280;5912;51.034;6.984;2023-07-24T11:18:49;55917.66;;;-142.13;42.48
11712;BME280;5912;51.034;6.984;2023-07-24T11:21:17;55913.66;;;-142.13;42.22
11712;BME280;5912;51.034;6.984;2023-07-24T11:23:50;55923.66;;;-142.13;40.30
11712;BME280;5912;51.034;6.984;2023-07-24T11:26:18;55909.63;;;-142.13;41.61
11712;BME280;5912;51.034;6.984;2023-07-24T11:28:43;55917.66;;;-142.13;42.07
11712;BME280;5912;51.034;6.984;2023-07-24T11:31:09;55929.66;;;-142.13;43.44
11712;BME280;5912;51.034;6.984;2023-07-24T11:33:34;55923.66;;;-142.13;43.96
11712;BME280;5912;51.034;6.984;2023-07-24T11:36:00;55973.75;;;-142.13;44.91
11712;BME280;5912;51.034;6.984;2023-07-24T11:38:26;55997.78;;;-142.13;45.79
11712;BME280;5912;51.034;6.984;2023-07-24T11:40:54;56011.78;;;-142.13;47.95
11712;BME280;5912;51.034;6.984;2023-07-24T11:43:21;56015.81;;;-142.13;49.59
11712;BME280;5912;51.034;6.984;2023-07-24T11:45:48;56051.84;;;-142.13;49.79
11712;BME280;5912;51.034;6.984;2023-07-24T11:48:17;56055.84;;;-142.13;51.99
11712;BME280;5912;51.034;6.984;2023-07-24T11:50:44;56087.91;;;-142.13;55.15
11712;BME280;5912;51.034;6.984;2023-07-24T11:53:19;56105.94;;;-142.13;58.79
11712;BME280;5912;51.034;6.984;2023-07-24T11:55:45;56140.00;;;-142.13;61.63
11712;BME280;5912;51.034;6.984;2023-07-24T11:58:14;56125.97;;;-142.13;63.57
11712;BME280;5912;51.034;6.984;2023-07-24T12:00:39;56071.88;;;-142.13;66.10
11712;BME280;5912;51.034;6.984;2023-07-24T12:03:05;56027.81;;;-142.13;59.73
11712;BME280;5912;51.034;6.984;2023-07-24T12:05:50;56156.00;;;-142.13;58.99
11712;BME280;5912;51.034;6.984;2023-07-24T12:08:16;56027.81;;;-142.13;58.57
11712;BME280;5912;51.034;6.984;2023-07-24T12:10:43;56019.81;;;-142.13;56.84
11712;BME280;5912;51.034;6.984;2023-07-24T12:13:09;56019.81;;;-142.13;56.20
11712;BME280;5912;51.034;6.984;2023-07-24T12:15:34;56041.84;;;-142.13;55.84
11712;BME280;5912;51.034;6.984;2023-07-24T12:18:04;56045.84;;;-142.13;56.11
11712;BME280;5912;51.034;6.984;2023-07-24T12:20:29;56051.84;;;-142.13;56.51
11712;BME280;5912;51.034;6.984;2023-07-24T12:22:54;56075.88;;;-142.13;54.57
11712;BME280;5912;51.034;6.984;2023-07-24T12:25:20;56091.91;;;-142.13;54.94
11712;BME280;5912;51.034;6.984;2023-07-24T12:27:49;56073.88;;;-142.13;55.39
11712;BME280;5912;51.034;6.984;2023-07-24T12:30:15;56085.91;;;-142.13;56.43
11712;BME280;5912;51.034;6.984;2023-07-24T12:32:40;56033.81;;;-142.13;55.64
11712;BME280;5912;51.034;6.984;2023-07-24T12:35:07;56031.81;;;-142.13;53.22
11712;BME280;5912;51.034;6.984;2023-07-24T12:37:33;56007.78;;;-142.13;51.53
11712;BME280;5912;51.034;6.984;2023-07-24T12:39:58;55979.75;;;-142.13;50.95
11712;BME280;5912;51.034;6.984;2023-07-24T12:42:23;55967.72;;;-142.13;48.35
11712;BME280;5912;51.034;6.984;2023-07-24T12:44:49;55953.72;;;-142.13;47.58
11712;BME280;5912;51.034;6.984;2023-07-24T12:47:14;55917.66;;;-142.13;43.53
11712;BME280;5912;51.034;6.984;2023-07-24T12:49:39;55873.59;;;-142.13;41.46
11712;BME280;5912;51.034;6.984;2023-07-24T12:52:05;55871.59;;;-142.13;40.37